Аэропорт: Казань. Казань

ICAO: UWKD

METAR:
2018/09/19 07:30
UWKD 190730Z 32009G14MPS 9999 BKN017CB 11/07 Q1004 R29/2/0050 NOSIG RMK QFE742/0990
METAR:
2018/09/19 06:24
TAF UWKD 190456Z 1906/2006 30008G13MPS 9999 OVC015 TX12/1912Z TN08/2002Z 
      TEMPO 1906/1915 31010G15MPS 3100 -SHRA BKN007 BKN020CB